Time;durP1;ratioP1;P1;durP2;ratioP2;P2;SDS_P1;SDS_P2;PMS_P1;PMS_P2;Temp;Humidity;BMP_temperature;BMP_pressure;BME280_temperature;BME280_humidity;BME280_pressure;Samples;Min_cycle;Max_cycle;Signal;HPM_P1;HPM_P2
2023/09/08 00:00:50;;;;;;;2.00;1.00;;;;;;;;;;5095038;28;20024;-86
2023/09/08 00:03:15;;;;;;;5.47;1.00;;;;;;;;;;5095034;28;20032;-86
2023/09/08 00:05:41;;;;;;;2.65;0.90;;;;;;;;;;5095521;28;20104;-85
2023/09/08 00:08:06;;;;;;;4.82;1.10;;;;;;;;;;5083754;28;20050;-85
2023/09/08 00:10:32;;;;;;;3.38;1.10;;;;;;;;;;5095963;28;20060;-86
2023/09/08 00:12:57;;;;;;;4.32;1.10;;;;;;;;;;5094991;28;20101;-86
2023/09/08 00:15:23;;;;;;;;;;;;;;;;;;5074623;28;20023;-84
2023/09/08 00:17:48;;;;;;;3.67;1.20;;;;;;;;;;5091884;28;19923;-85
2023/09/08 00:20:15;;;;;;;;;;;;;;;;;;5065809;28;20087;-85
2023/09/08 00:22:40;;;;;;;2.90;1.10;;;;;;;;;;5087710;28;20007;-86
2023/09/08 00:25:06;;;;;;;3.20;1.05;;;;;;;;;;5093693;28;20115;-84
2023/09/08 00:27:31;;;;;;;;;;;;;;;;;;5091123;28;20105;-85
2023/09/08 00:29:57;;;;;;;3.63;1.00;;;;;;;;;;5093347;28;20014;-84
2023/09/08 00:32:23;;;;;;;1.20;0.68;;;;;;;;;;5080422;28;20071;-85
2023/09/08 00:34:48;;;;;;;;;;;;;;;;;;5070696;28;20118;-86
2023/09/08 00:37:13;;;;;;;2.15;1.00;;;;;;;;;;5072690;28;19912;-86
2023/09/08 00:39:39;;;;;;;;;;;;;;;;;;5076099;28;20406;-85
2023/09/08 00:42:05;;;;;;;4.03;1.08;;;;;;;;;;5094244;28;20004;-85
2023/09/08 00:44:30;;;;;;;;;;;;;;;;;;5093707;28;20478;-86
2023/09/08 00:46:56;;;;;;;4.25;0.90;;;;;;;;;;5093876;28;20268;-86
2023/09/08 00:49:21;;;;;;;2.63;1.08;;;;;;;;;;5075867;28;20074;-86
2023/09/08 00:51:47;;;;;;;2.78;1.25;;;;;;;;;;5093023;28;20414;-86
2023/09/08 00:54:12;;;;;;;3.88;1.10;;;;;;;;;;5092827;28;20043;-85
2023/09/08 00:56:38;;;;;;;3.47;1.00;;;;;;;;;;5075716;28;20510;-86
2023/09/08 00:59:03;;;;;;;2.00;0.60;;;;;;;;;;5059864;28;20479;-85
2023/09/08 01:01:29;;;;;;;1.83;1.00;;;;;;;;;;5092451;28;20035;-86
2023/09/08 01:03:54;;;;;;;2.97;1.20;;;;;;;;;;5071982;28;20040;-85
2023/09/08 01:06:21;;;;;;;2.75;1.10;;;;;;;;;;5053991;28;20404;-85
2023/09/08 01:08:46;;;;;;;3.25;1.60;;;;;;;;;;5075625;28;20016;-85
2023/09/08 01:11:12;;;;;;;4.63;1.30;;;;;;;;;;5092705;28;20074;-85
2023/09/08 01:13:37;;;;;;;2.03;0.88;;;;;;;;;;5075918;28;20035;-85
2023/09/08 01:16:03;;;;;;;2.38;1.00;;;;;;;;;;5092154;28;20034;-84
2023/09/08 01:18:28;;;;;;;4.45;0.90;;;;;;;;;;5102073;28;20027;-86
2023/09/08 01:20:54;;;;;;;;;;;;;;;;;;5065377;28;20052;-85
2023/09/08 01:23:38;;;;;;;3.00;1.10;;;;;;;;;;5081766;28;19912;-86
2023/09/08 01:26:04;;;;;;;5.47;1.00;;;;;;;;;;5105658;28;20051;-86
2023/09/08 01:28:30;;;;;;;4.30;1.20;;;;;;;;;;5099622;28;20044;-86
2023/09/08 01:30:56;;;;;;;5.25;1.40;;;;;;;;;;5106077;28;20487;-85
2023/09/08 01:33:21;;;;;;;5.32;1.00;;;;;;;;;;5092723;28;20073;-86
2023/09/08 01:35:47;;;;;;;3.50;1.20;;;;;;;;;;5088025;28;20457;-86
2023/09/08 01:38:12;;;;;;;3.45;1.17;;;;;;;;;;5109118;28;20445;-87
2023/09/08 01:40:38;;;;;;;5.05;1.10;;;;;;;;;;5088901;28;20064;-86
2023/09/08 01:43:04;;;;;;;2.13;1.10;;;;;;;;;;5076739;28;20043;-86
2023/09/08 01:45:29;;;;;;;;;;;;;;;;;;5092208;28;20034;-85
2023/09/08 01:47:54;;;;;;;2.83;1.30;;;;;;;;;;5093512;28;19912;-86
2023/09/08 01:50:22;;;;;;;;;;;;;;;;;;5091409;28;20020;-86
2023/09/08 01:52:47;;;;;;;3.75;1.20;;;;;;;;;;5083263;28;19939;-86
2023/09/08 01:55:13;;;;;;;3.38;1.25;;;;;;;;;;5074107;28;20059;-86
2023/09/08 01:57:38;;;;;;;;;;;;;;;;;;5075218;28;20036;-85
2023/09/08 02:00:05;;;;;;;2.65;1.10;;;;;;;;;;5109230;28;19916;-85
2023/09/08 02:02:38;;;;;;;2.00;1.00;;;;;;;;;;5086154;28;20020;-86
2023/09/08 02:05:03;;;;;;;4.03;1.20;;;;;;;;;;5068625;28;20035;-86
2023/09/08 02:07:29;;;;;;;3.08;1.20;;;;;;;;;;5102163;28;20128;-85
2023/09/08 02:09:54;;;;;;;2.50;1.15;;;;;;;;;;5091554;28;20036;-87
2023/09/08 02:12:21;;;;;;;2.08;1.00;;;;;;;;;;5092573;28;20561;-86
2023/09/08 02:14:47;;;;;;;5.68;1.30;;;;;;;;;;5093522;28;20020;-86
2023/09/08 02:17:13;;;;;;;3.25;1.20;;;;;;;;;;5076937;28;20020;-86
2023/09/08 02:19:38;;;;;;;5.00;1.30;;;;;;;;;;5078786;28;20524;-86
2023/09/08 02:22:03;;;;;;;;;;;;;;;;;;5079084;28;20028;-86
2023/09/08 02:24:29;;;;;;;3.88;1.20;;;;;;;;;;5097545;28;19912;-86
2023/09/08 02:26:54;;;;;;;;;;;;;;;;;;5095752;28;20059;-85
2023/09/08 02:29:20;;;;;;;4.07;1.10;;;;;;;;;;5112524;28;20371;-86
2023/09/08 02:31:45;;;;;;;1.73;1.00;;;;;;;;;;5063624;28;20080;-87
2023/09/08 02:34:12;;;;;;;3.83;1.20;;;;;;;;;;5078640;28;20028;-86
2023/09/08 02:36:38;;;;;;;3.15;1.10;;;;;;;;;;5078805;28;20043;-86
2023/09/08 02:39:04;;;;;;;3.72;1.30;;;;;;;;;;5095801;28;20039;-85
2023/09/08 02:41:30;;;;;;;2.03;1.30;;;;;;;;;;5078426;28;20069;-85
2023/09/08 02:43:56;;;;;;;3.08;1.30;;;;;;;;;;5079159;28;20052;-86
2023/09/08 02:46:22;;;;;;;3.40;1.10;;;;;;;;;;5079180;28;20451;-86
2023/09/08 02:48:47;;;;;;;3.40;1.02;;;;;;;;;;5077374;28;20116;-86
2023/09/08 02:51:13;;;;;;;;;;;;;;;;;;5095460;28;20032;-85
2023/09/08 02:53:38;;;;;;;4.03;1.40;;;;;;;;;;5092700;28;19919;-86
2023/09/08 02:56:05;;;;;;;;;;;;;;;;;;5078512;28;20558;-85
2023/09/08 02:58:33;;;;;;;2.85;1.10;;;;;;;;;;5094734;28;19916;-85
2023/09/08 03:01:09;;;;;;;3.08;1.50;;;;;;;;;;5079270;28;20036;-85
2023/09/08 03:03:35;;;;;;;3.45;1.40;;;;;;;;;;5072386;28;20033;-86
2023/09/08 03:06:03;;;;;;;2.17;1.20;;;;;;;;;;5078258;28;20123;-86
2023/09/08 03:08:30;;;;;;;3.00;1.35;;;;;;;;;;5062149;28;20038;-86
2023/09/08 03:10:57;;;;;;;5.72;1.38;;;;;;;;;;5095805;28;20442;-86
2023/09/08 03:13:23;;;;;;;2.75;1.10;;;;;;;;;;5075916;28;20389;-86
2023/09/08 03:15:49;;;;;;;4.70;1.20;;;;;;;;;;5077362;28;20050;-85
2023/09/08 03:18:14;;;;;;;2.25;1.05;;;;;;;;;;5089684;28;20036;-85
2023/09/08 03:20:40;;;;;;;4.15;1.33;;;;;;;;;;5095154;28;20498;-86
2023/09/08 03:23:05;;;;;;;3.38;1.20;;;;;;;;;;5095922;28;20111;-86
2023/09/08 03:25:31;;;;;;;2.95;1.10;;;;;;;;;;5094003;28;20476;-85
2023/09/08 03:27:56;;;;;;;5.30;1.30;;;;;;;;;;5096039;28;20036;-86
2023/09/08 03:30:22;;;;;;;;;;;;;;;;;;5078438;28;20047;-84
2023/09/08 03:32:47;;;;;;;3.25;1.33;;;;;;;;;;5095355;28;19963;-86
2023/09/08 03:35:13;;;;;;;2.95;1.05;;;;;;;;;;5095548;28;20028;-85
2023/09/08 03:37:40;;;;;;;2.15;1.02;;;;;;;;;;5098446;28;20039;-85
2023/09/08 03:40:06;;;;;;;2.63;1.10;;;;;;;;;;5101954;28;20024;-85
2023/09/08 03:42:32;;;;;;;3.95;1.25;;;;;;;;;;5083159;28;20058;-87
2023/09/08 03:44:58;;;;;;;3.95;1.30;;;;;;;;;;5074432;28;20115;-86
2023/09/08 03:47:23;;;;;;;;;;;;;;;;;;5077644;28;20024;-86
2023/09/08 03:49:49;;;;;;;2.58;1.02;;;;;;;;;;5093531;28;20339;-86
2023/09/08 03:52:15;;;;;;;3.97;1.48;;;;;;;;;;5077055;28;20411;-85
2023/09/08 03:54:40;;;;;;;2.42;1.30;;;;;;;;;;5073521;28;20035;-85
2023/09/08 03:57:06;;;;;;;4.43;1.23;;;;;;;;;;5090395;28;20071;-86
2023/09/08 03:59:31;;;;;;;5.35;1.40;;;;;;;;;;5086809;28;20547;-85
2023/09/08 04:01:57;;;;;;;3.20;1.17;;;;;;;;;;5075760;28;20027;-85
2023/09/08 04:04:22;;;;;;;;;;;;;;;;;;5095215;28;20031;-85
2023/09/08 04:06:48;;;;;;;2.63;1.40;;;;;;;;;;5094112;28;20052;-85
2023/09/08 04:09:14;;;;;;;7.00;1.75;;;;;;;;;;5077346;28;20403;-86
2023/09/08 04:11:39;;;;;;;4.18;1.80;;;;;;;;;;5092272;28;20036;-86
2023/09/08 04:14:05;;;;;;;;;;;;;;;;;;5090350;28;20020;-86
2023/09/08 04:16:30;;;;;;;3.50;1.60;;;;;;;;;;5077098;28;19999;-86
2023/09/08 04:18:56;;;;;;;6.03;1.45;;;;;;;;;;5077688;28;20032;-86
2023/09/08 04:21:21;;;;;;;3.90;1.60;;;;;;;;;;5076486;28;20118;-86
2023/09/08 04:23:47;;;;;;;3.75;1.67;;;;;;;;;;5093884;28;20055;-86
2023/09/08 04:26:13;;;;;;;4.30;1.70;;;;;;;;;;5092830;28;20510;-86
2023/09/08 04:28:38;;;;;;;;;;;;;;;;;;5057481;28;20035;-85
2023/09/08 04:31:04;;;;;;;4.72;1.52;;;;;;;;;;5094714;28;19966;-85
2023/09/08 04:33:30;;;;;;;3.53;1.48;;;;;;;;;;5076954;28;20016;-86
2023/09/08 04:35:55;;;;;;;;;;;;;;;;;;5075348;28;20059;-86
2023/09/08 04:38:20;;;;;;;4.25;1.48;;;;;;;;;;5101022;27;19919;-86
2023/09/08 04:40:46;;;;;;;;;;;;;;;;;;5093438;28;20106;-83
2023/09/08 04:43:12;;;;;;;3.80;1.58;;;;;;;;;;5079649;28;19915;-84
2023/09/08 04:45:37;;;;;;;;;;;;;;;;;;5075898;28;20071;-86
2023/09/08 04:48:04;;;;;;;2.85;1.60;;;;;;;;;;5101692;27;19909;-86
2023/09/08 04:50:30;;;;;;;3.75;2.10;;;;;;;;;;5091854;28;20060;-86
2023/09/08 04:52:55;;;;;;;4.30;1.88;;;;;;;;;;5075720;28;20027;-84
2023/09/08 04:55:21;;;;;;;3.97;2.08;;;;;;;;;;5090298;28;20043;-86
2023/09/08 04:57:47;;;;;;;4.43;1.90;;;;;;;;;;5076827;28;20115;-86
2023/09/08 05:00:13;;;;;;;3.05;1.85;;;;;;;;;;5087432;28;20118;-87
2023/09/08 05:02:38;;;;;;;3.97;1.80;;;;;;;;;;5075785;28;20576;-87
2023/09/08 05:05:05;;;;;;;4.85;1.92;;;;;;;;;;5093445;28;20042;-85
2023/09/08 05:07:31;;;;;;;5.70;2.22;;;;;;;;;;5093602;28;20470;-85
2023/09/08 05:09:56;;;;;;;3.92;2.05;;;;;;;;;;5085286;28;20032;-85
2023/09/08 05:12:22;;;;;;;5.57;1.70;;;;;;;;;;5093962;28;20051;-85
2023/09/08 05:14:47;;;;;;;;;;;;;;;;;;5075918;28;20383;-85
2023/09/08 05:17:13;;;;;;;3.50;1.70;;;;;;;;;;5093579;28;19908;-84
2023/09/08 05:19:39;;;;;;;3.80;2.03;;;;;;;;;;5075506;28;20410;-86
2023/09/08 05:22:05;;;;;;;6.57;1.95;;;;;;;;;;5092933;28;20059;-86
2023/09/08 05:24:30;;;;;;;4.47;1.50;;;;;;;;;;5076222;28;20403;-86
2023/09/08 05:26:56;;;;;;;5.43;1.80;;;;;;;;;;5088266;28;20047;-86
2023/09/08 05:29:22;;;;;;;5.07;2.08;;;;;;;;;;5075410;28;20032;-85
2023/09/08 05:31:48;;;;;;;3.22;1.75;;;;;;;;;;5092112;28;20097;-86
2023/09/08 05:34:15;;;;;;;4.18;2.00;;;;;;;;;;5092104;28;20032;-85
2023/09/08 05:36:42;;;;;;;3.38;1.77;;;;;;;;;;5088781;28;20035;-85
2023/09/08 05:39:08;;;;;;;4.60;1.75;;;;;;;;;;5076414;28;20418;-86
2023/09/08 05:41:33;;;;;;;5.68;1.92;;;;;;;;;;5059200;28;20020;-85
2023/09/08 05:44:00;;;;;;;4.05;1.88;;;;;;;;;;5086103;28;20024;-86
2023/09/08 05:46:26;;;;;;;3.47;1.77;;;;;;;;;;5093672;28;20019;-86
2023/09/08 05:48:52;;;;;;;4.32;1.90;;;;;;;;;;5074713;28;20048;-87
2023/09/08 05:51:18;;;;;;;2.80;1.70;;;;;;;;;;5092438;28;20093;-86
2023/09/08 05:53:44;;;;;;;3.22;2.05;;;;;;;;;;5087076;28;20016;-86
2023/09/08 05:56:10;;;;;;;3.30;1.90;;;;;;;;;;5076224;28;20043;-86
2023/09/08 05:58:37;;;;;;;4.65;2.10;;;;;;;;;;5074568;28;20028;-87
2023/09/08 06:01:03;;;;;;;4.22;1.77;;;;;;;;;;5093045;28;20030;-86
2023/09/08 06:03:29;;;;;;;4.18;2.08;;;;;;;;;;5091989;28;20115;-86
2023/09/08 06:05:54;;;;;;;;;;;;;;;;;;5073539;28;20033;-86
2023/09/08 06:08:20;;;;;;;2.63;1.50;;;;;;;;;;5072321;28;19962;-86
2023/09/08 06:10:46;;;;;;;3.05;1.77;;;;;;;;;;5102574;28;20033;-85
2023/09/08 06:13:11;;;;;;;3.75;1.70;;;;;;;;;;5091577;28;20033;-86
2023/09/08 06:15:38;;;;;;;4.28;1.60;;;;;;;;;;5058777;28;20455;-87
2023/09/08 06:18:04;;;;;;;4.50;1.75;;;;;;;;;;5088412;28;20028;-86
2023/09/08 06:20:30;;;;;;;2.88;1.50;;;;;;;;;;5092394;28;20036;-86
2023/09/08 06:22:55;;;;;;;3.25;1.92;;;;;;;;;;5075935;28;20114;-86
2023/09/08 06:25:21;;;;;;;3.47;1.80;;;;;;;;;;5094679;28;20050;-87
2023/09/08 06:27:47;;;;;;;5.32;1.85;;;;;;;;;;5083484;28;20048;-87
2023/09/08 06:30:16;;;;;;;3.53;1.65;;;;;;;;;;5075440;28;20583;-86
2023/09/08 06:32:42;;;;;;;5.20;1.55;;;;;;;;;;5082920;28;20046;-86
2023/09/08 06:35:08;;;;;;;2.70;1.58;;;;;;;;;;5074915;28;20357;-88
2023/09/08 06:37:37;;;;;;;3.47;1.70;;;;;;;;;;5075262;28;20438;-87
2023/09/08 06:40:03;;;;;;;3.72;1.60;;;;;;;;;;5091464;28;20510;-86
2023/09/08 06:42:29;;;;;;;2.97;1.60;;;;;;;;;;5075116;28;20026;-87
2023/09/08 06:45:06;;;;;;;2.80;1.63;;;;;;;;;;5070151;28;20032;-87
2023/09/08 06:47:31;;;;;;;3.70;1.60;;;;;;;;;;5091699;28;20059;-86
2023/09/08 06:49:57;;;;;;;2.95;1.55;;;;;;;;;;5091954;28;20044;-86
2023/09/08 06:52:22;;;;;;;2.55;1.40;;;;;;;;;;5092871;28;20040;-86
2023/09/08 06:54:48;;;;;;;3.03;1.80;;;;;;;;;;5094319;28;20059;-86
2023/09/08 06:57:13;;;;;;;;;;;;;;;;;;5091501;28;20384;-86
2023/09/08 06:59:39;;;;;;;3.75;1.40;;;;;;;;;;5098199;28;19919;-86
2023/09/08 07:02:04;;;;;;;3.38;1.60;;;;;;;;;;5095409;28;20119;-85
2023/09/08 07:04:30;;;;;;;2.17;1.30;;;;;;;;;;5096173;28;20032;-87
2023/09/08 07:06:56;;;;;;;7.53;5.15;;;;;;;;;;5074680;28;20518;-87
2023/09/08 07:09:21;;;;;;;4.45;2.67;;;;;;;;;;5093804;28;20028;-87
2023/09/08 07:11:47;;;;;;;5.03;2.47;;;;;;;;;;5094465;28;20036;-85
2023/09/08 07:14:13;;;;;;;3.65;1.83;;;;;;;;;;5094732;28;20031;-86
2023/09/08 07:16:39;;;;;;;3.03;1.50;;;;;;;;;;5096514;28;20491;-87
2023/09/08 07:19:05;;;;;;;2.35;1.20;;;;;;;;;;5095160;28;20063;-85
2023/09/08 07:21:31;;;;;;;2.83;1.40;;;;;;;;;;5077503;28;20036;-86
2023/09/08 07:23:58;;;;;;;2.90;1.63;;;;;;;;;;5077840;28;20028;-88
2023/09/08 07:26:24;;;;;;;2.28;1.23;;;;;;;;;;5094679;28;20132;-87
2023/09/08 07:28:49;;;;;;;2.97;1.35;;;;;;;;;;5094241;28;20060;-87
2023/09/08 07:31:15;;;;;;;3.53;1.20;;;;;;;;;;5095371;28;20071;-88
2023/09/08 07:33:43;;;;;;;2.67;1.30;;;;;;;;;;5062269;28;20020;-89
2023/09/08 07:36:10;;;;;;;2.33;1.33;;;;;;;;;;5090908;28;20457;-86
2023/09/08 07:38:37;;;;;;;2.47;1.20;;;;;;;;;;5088635;28;20024;-86
2023/09/08 07:41:02;;;;;;;3.28;1.05;;;;;;;;;;5079105;28;20024;-87
2023/09/08 07:43:28;;;;;;;2.22;1.30;;;;;;;;;;5077546;28;20030;-87
2023/09/08 07:45:54;;;;;;;2.00;1.23;;;;;;;;;;5077051;28;20020;-86
2023/09/08 07:48:19;;;;;;;2.42;1.20;;;;;;;;;;5094270;28;20077;-85
2023/09/08 07:50:45;;;;;;;4.68;1.50;;;;;;;;;;5094434;28;20046;-88
2023/09/08 07:53:10;;;;;;;3.70;1.48;;;;;;;;;;5094787;28;20059;-87
2023/09/08 07:55:36;;;;;;;3.90;1.30;;;;;;;;;;5094449;28;20039;-86
2023/09/08 07:58:03;;;;;;;4.97;1.38;;;;;;;;;;5093041;28;20430;-86
2023/09/08 08:00:29;;;;;;;2.45;1.40;;;;;;;;;;5095626;28;20466;-87
2023/09/08 08:02:54;;;;;;;2.75;1.40;;;;;;;;;;5095467;28;20024;-87
2023/09/08 08:05:20;;;;;;;3.67;1.70;;;;;;;;;;5094614;28;20071;-86
2023/09/08 08:07:46;;;;;;;5.15;1.67;;;;;;;;;;5094113;28;20024;-87
2023/09/08 08:10:11;;;;;;;5.88;2.47;;;;;;;;;;5095053;28;20195;-88
2023/09/08 08:12:37;;;;;;;6.72;2.17;;;;;;;;;;5076585;28;20052;-86
2023/09/08 08:15:04;;;;;;;5.53;1.75;;;;;;;;;;5077136;28;20402;-86
2023/09/08 08:17:30;;;;;;;5.90;2.42;;;;;;;;;;5092810;28;20051;-87
2023/09/08 08:19:58;;;;;;;4.65;1.70;;;;;;;;;;5094704;28;20115;-86
2023/09/08 08:22:24;;;;;;;5.40;2.15;;;;;;;;;;5077737;28;20093;-88
2023/09/08 08:24:49;;;;;;;4.32;1.90;;;;;;;;;;5085882;28;20513;-87
2023/09/08 08:27:15;;;;;;;8.05;2.33;;;;;;;;;;5100205;28;20090;-87
2023/09/08 08:29:40;;;;;;;6.38;2.03;;;;;;;;;;5094958;28;20081;-87
2023/09/08 08:32:05;;;;;;;5.47;2.15;;;;;;;;;;5095594;28;20039;-87
2023/09/08 08:34:31;;;;;;;6.13;2.10;;;;;;;;;;5085701;28;20043;-86
2023/09/08 08:36:56;;;;;;;4.15;1.70;;;;;;;;;;5093516;28;20027;-85
2023/09/08 08:39:22;;;;;;;5.57;1.77;;;;;;;;;;5092510;28;20410;-86
2023/09/08 08:41:47;;;;;;;5.07;1.58;;;;;;;;;;5095215;28;20471;-86
2023/09/08 08:44:13;;;;;;;6.90;1.90;;;;;;;;;;5093468;28;20028;-86
2023/09/08 08:46:39;;;;;;;5.22;1.65;;;;;;;;;;5093783;28;20046;-88
2023/09/08 08:49:04;;;;;;;4.57;1.67;;;;;;;;;;5086569;28;20119;-87
2023/09/08 08:51:32;;;;;;;5.05;1.77;;;;;;;;;;5095522;28;20529;-86
2023/09/08 08:54:00;;;;;;;4.97;2.00;;;;;;;;;;5103821;28;20416;-87
2023/09/08 08:56:25;;;;;;;3.85;2.03;;;;;;;;;;5073595;28;20035;-85
2023/09/08 08:58:51;;;;;;;4.35;2.28;;;;;;;;;;5093669;28;20399;-86
2023/09/08 09:01:18;;;;;;;4.28;2.42;;;;;;;;;;5094710;28;20046;-87
2023/09/08 09:03:45;;;;;;;4.00;2.10;;;;;;;;;;5075461;28;20112;-88
2023/09/08 09:06:10;;;;;;;4.55;2.13;;;;;;;;;;5099260;28;20077;-86
2023/09/08 09:08:36;;;;;;;4.20;2.13;;;;;;;;;;5088943;28;20036;-87
2023/09/08 09:11:02;;;;;;;5.78;2.50;;;;;;;;;;5092932;28;20032;-87
2023/09/08 09:13:27;;;;;;;5.88;2.65;;;;;;;;;;5085540;28;20032;-87
2023/09/08 09:15:53;;;;;;;4.78;2.13;;;;;;;;;;5095326;28;20030;-87
2023/09/08 09:18:54;;;;;;;6.10;2.40;;;;;;;;;;5090449;28;20039;-86
2023/09/08 09:21:20;;;;;;;4.45;1.95;;;;;;;;;;5093964;28;20034;-86
2023/09/08 09:23:45;;;;;;;3.78;1.80;;;;;;;;;;5097631;28;20110;-86
2023/09/08 09:26:11;;;;;;;3.83;2.22;;;;;;;;;;5095073;28;20537;-86
2023/09/08 09:28:46;;;;;;;3.78;1.60;;;;;;;;;;5092384;28;20055;-88
2023/09/08 09:31:11;;;;;;;3.88;1.30;;;;;;;;;;5091788;28;20032;-86
2023/09/08 09:33:37;;;;;;;5.75;1.65;;;;;;;;;;5092910;28;20028;-87
2023/09/08 09:36:02;;;;;;;2.50;1.25;;;;;;;;;;5094442;28;20034;-86
2023/09/08 09:38:28;;;;;;;4.28;1.40;;;;;;;;;;5092749;28;20060;-87
2023/09/08 09:40:54;;;;;;;5.07;1.70;;;;;;;;;;5072891;28;20399;-88
2023/09/08 09:43:20;;;;;;;4.65;1.70;;;;;;;;;;5064342;28;20024;-87
2023/09/08 09:45:45;;;;;;;3.35;1.67;;;;;;;;;;5092710;28;20028;-87
2023/09/08 09:48:11;;;;;;;4.72;1.63;;;;;;;;;;5076359;28;20031;-86
2023/09/08 09:50:40;;;;;;;6.32;2.00;;;;;;;;;;5075982;28;20028;-88
2023/09/08 09:53:13;;;;;;;5.88;1.73;;;;;;;;;;5093090;28;20085;-87
2023/09/08 09:55:39;;;;;;;5.35;1.70;;;;;;;;;;5097965;28;20027;-85
2023/09/08 09:58:04;;;;;;;4.38;1.80;;;;;;;;;;5091119;28;20038;-86
2023/09/08 10:00:33;;;;;;;4.53;1.77;;;;;;;;;;5075694;28;20040;-87
2023/09/08 10:02:58;;;;;;;5.75;1.85;;;;;;;;;;5092013;28;20067;-86
2023/09/08 10:05:24;;;;;;;5.97;1.38;;;;;;;;;;5094171;28;20479;-86
2023/09/08 10:07:49;;;;;;;4.72;1.58;;;;;;;;;;5072691;28;20036;-88
2023/09/08 10:10:18;;;;;;;4.07;1.73;;;;;;;;;;5092832;28;20038;-87
2023/09/08 10:12:45;;;;;;;2.80;1.42;;;;;;;;;;5072755;28;20395;-86
2023/09/08 10:15:10;;;;;;;3.13;1.60;;;;;;;;;;5093937;28;20055;-87
2023/09/08 10:17:36;;;;;;;7.35;2.15;;;;;;;;;;5076724;28;20024;-86
2023/09/08 10:20:10;;;;;;;6.30;1.80;;;;;;;;;;5093561;28;20517;-85
2023/09/08 10:22:36;;;;;;;5.45;1.60;;;;;;;;;;5092885;28;20052;-87
2023/09/08 10:25:03;;;;;;;3.05;1.20;;;;;;;;;;5095591;28;20031;-86
2023/09/08 10:27:29;;;;;;;3.50;1.60;;;;;;;;;;5080776;28;20606;-87
2023/09/08 10:29:54;;;;;;;4.18;1.73;;;;;;;;;;5095447;28;20118;-86
2023/09/08 10:32:20;;;;;;;4.45;1.50;;;;;;;;;;5076824;28;20441;-87
2023/09/08 10:34:45;;;;;;;3.22;1.50;;;;;;;;;;5092281;28;20081;-85
2023/09/08 10:37:20;;;;;;;7.47;2.20;;;;;;;;;;5092742;28;20044;-85
2023/09/08 10:39:46;;;;;;;4.82;1.85;;;;;;;;;;5096943;28;20089;-87
2023/09/08 10:42:21;;;;;;;3.63;1.50;;;;;;;;;;5062882;28;20024;-85
2023/09/08 10:44:49;;;;;;;4.30;1.88;;;;;;;;;;5091963;28;20499;-86
2023/09/08 10:47:18;;;;;;;4.68;1.63;;;;;;;;;;5097283;28;20511;-87
2023/09/08 10:49:44;;;;;;;3.53;1.75;;;;;;;;;;5077015;28;20032;-87
2023/09/08 10:52:10;;;;;;;6.47;1.60;;;;;;;;;;5095996;28;20475;-86
2023/09/08 10:54:42;;;;;;;4.40;1.70;;;;;;;;;;5095693;28;20035;-87
2023/09/08 10:57:14;;;;;;;4.00;1.73;;;;;;;;;;5094914;28;20061;-87
2023/09/08 10:59:40;;;;;;;3.17;1.33;;;;;;;;;;5091474;28;20123;-87
2023/09/08 11:02:05;;;;;;;4.28;1.13;;;;;;;;;;5078841;28;20093;-86
2023/09/08 11:04:32;;;;;;;3.60;1.70;;;;;;;;;;5076189;28;20039;-87
2023/09/08 11:06:57;;;;;;;3.15;1.50;;;;;;;;;;5096238;28;20055;-86
2023/09/08 11:09:23;;;;;;;4.20;1.42;;;;;;;;;;5077499;28;20028;-87
2023/09/08 11:11:49;;;;;;;2.50;1.00;;;;;;;;;;5078486;28;20028;-86
2023/09/08 11:14:15;;;;;;;4.75;1.30;;;;;;;;;;5090499;28;20123;-86
2023/09/08 11:16:40;;;;;;;3.30;1.40;;;;;;;;;;5091332;28;20143;-86
2023/09/08 11:19:06;;;;;;;2.75;1.25;;;;;;;;;;5083414;28;20546;-88
2023/09/08 11:21:34;;;;;;;2.92;1.33;;;;;;;;;;5079319;28;20398;-86
2023/09/08 11:24:04;;;;;;;4.28;1.40;;;;;;;;;;5097530;28;20036;-86
2023/09/08 11:26:32;;;;;;;3.75;1.10;;;;;;;;;;5079475;28;20059;-88
2023/09/08 11:28:57;;;;;;;2.30;1.10;;;;;;;;;;5077248;28;20041;-87
2023/09/08 11:31:22;;;;;;;3.67;1.10;;;;;;;;;;5091888;28;20040;-87
2023/09/08 11:33:48;;;;;;;2.58;1.27;;;;;;;;;;5090111;28;20036;-88
2023/09/08 11:36:17;;;;;;;3.83;1.50;;;;;;;;;;5093812;28;20032;-86
2023/09/08 11:38:42;;;;;;;2.92;1.30;;;;;;;;;;5096270;28;20078;-86
2023/09/08 11:41:08;;;;;;;6.85;1.90;;;;;;;;;;5089393;28;20456;-85
2023/09/08 11:43:34;;;;;;;2.45;1.30;;;;;;;;;;5075432;28;20488;-85
2023/09/08 11:45:59;;;;;;;4.97;1.40;;;;;;;;;;5079046;28;20012;-86
2023/09/08 11:48:25;;;;;;;4.47;1.33;;;;;;;;;;5077952;28;20372;-88
2023/09/08 11:50:53;;;;;;;5.47;1.35;;;;;;;;;;5099094;28;20020;-86
2023/09/08 11:53:19;;;;;;;2.97;1.30;;;;;;;;;;5095444;28;20419;-86
2023/09/08 11:55:44;;;;;;;7.20;1.70;;;;;;;;;;5096588;28;20479;-87
2023/09/08 11:58:11;;;;;;;5.22;1.73;;;;;;;;;;5077783;28;20043;-87
2023/09/08 12:00:37;;;;;;;3.42;1.63;;;;;;;;;;5095185;28;20032;-87
2023/09/08 12:03:10;;;;;;;4.82;1.48;;;;;;;;;;5095401;28;20073;-88
2023/09/08 12:05:35;;;;;;;2.92;1.50;;;;;;;;;;5094956;28;20047;-87
2023/09/08 12:08:04;;;;;;;4.03;1.50;;;;;;;;;;5094882;28;20024;-89
2023/09/08 12:10:30;;;;;;;5.43;1.50;;;;;;;;;;5094775;28;20546;-86
2023/09/08 12:12:59;;;;;;;3.53;1.27;;;;;;;;;;5092762;28;20085;-86
2023/09/08 12:15:35;;;;;;;5.90;1.70;;;;;;;;;;5095190;28;20036;-88
2023/09/08 12:18:01;;;;;;;4.38;1.50;;;;;;;;;;5090909;28;20023;-87
2023/09/08 12:20:26;;;;;;;4.80;1.58;;;;;;;;;;5095339;28;20027;-88
2023/09/08 12:22:52;;;;;;;2.55;1.30;;;;;;;;;;5094065;28;20143;-87
2023/09/08 12:25:17;;;;;;;4.68;1.70;;;;;;;;;;5094519;28;20028;-86
2023/09/08 12:27:44;;;;;;;4.78;1.63;;;;;;;;;;5096053;28;20134;-86
2023/09/08 12:30:13;;;;;;;3.25;1.50;;;;;;;;;;5094241;28;20036;-88
2023/09/08 12:32:38;;;;;;;4.22;1.40;;;;;;;;;;5095738;28;20039;-87
2023/09/08 12:35:04;;;;;;;4.22;1.50;;;;;;;;;;5094570;28;20016;-87
2023/09/08 12:37:30;;;;;;;3.33;1.20;;;;;;;;;;5092734;28;20171;-87
2023/09/08 12:39:55;;;;;;;5.63;1.30;;;;;;;;;;5093357;28;20032;-87
2023/09/08 12:42:21;;;;;;;3.30;1.20;;;;;;;;;;5093109;28;20035;-88
2023/09/08 12:44:49;;;;;;;4.63;1.60;;;;;;;;;;5090626;28;20103;-87
2023/09/08 12:47:15;;;;;;;3.53;1.40;;;;;;;;;;5082719;28;20481;-88
2023/09/08 12:49:40;;;;;;;4.85;1.27;;;;;;;;;;5096303;28;20034;-88
2023/09/08 12:52:06;;;;;;;5.30;1.40;;;;;;;;;;5086169;28;20038;-86
2023/09/08 12:54:32;;;;;;;2.97;1.40;;;;;;;;;;5093982;28;20160;-87
2023/09/08 12:56:57;;;;;;;4.28;1.60;;;;;;;;;;5076485;28;20123;-86
2023/09/08 12:59:23;;;;;;;5.82;1.48;;;;;;;;;;5091866;28;20034;-87
2023/09/08 13:01:48;;;;;;;5.38;1.20;;;;;;;;;;5094234;28;20111;-88
2023/09/08 13:04:14;;;;;;;4.88;1.70;;;;;;;;;;5096171;28;20027;-87
2023/09/08 13:06:39;;;;;;;9.68;1.55;;;;;;;;;;5094052;28;20119;-86
2023/09/08 13:09:05;;;;;;;3.75;1.50;;;;;;;;;;5094799;28;20035;-86
2023/09/08 13:11:30;;;;;;;4.22;1.40;;;;;;;;;;5095247;28;20437;-88
2023/09/08 13:13:56;;;;;;;5.20;1.60;;;;;;;;;;5074233;28;20020;-86
2023/09/08 13:16:21;;;;;;;2.42;1.48;;;;;;;;;;5094421;28;20039;-87
2023/09/08 13:18:47;;;;;;;4.75;1.63;;;;;;;;;;5092244;28;20034;-87
2023/09/08 13:21:12;;;;;;;3.40;1.50;;;;;;;;;;5094859;28;20115;-89
2023/09/08 13:23:38;;;;;;;7.20;1.85;;;;;;;;;;5094145;28;20024;-88
2023/09/08 13:26:03;;;;;;;3.63;1.55;;;;;;;;;;5075733;28;20048;-86
2023/09/08 13:28:29;;;;;;;6.43;1.27;;;;;;;;;;5090826;28;20093;-86
2023/09/08 13:30:54;;;;;;;4.78;1.63;;;;;;;;;;5094147;28;20055;-87
2023/09/08 13:33:20;;;;;;;3.38;1.17;;;;;;;;;;5093145;28;20383;-87
2023/09/08 13:35:45;;;;;;;2.95;1.10;;;;;;;;;;5087190;28;20043;-87
2023/09/08 13:38:11;;;;;;;2.70;1.30;;;;;;;;;;5085828;28;20027;-86
2023/09/08 13:40:36;;;;;;;4.00;1.30;;;;;;;;;;5092870;28;20518;-87
2023/09/08 13:43:02;;;;;;;5.03;1.30;;;;;;;;;;5077058;28;20095;-86
2023/09/08 13:45:28;;;;;;;4.88;1.50;;;;;;;;;;5086522;28;20028;-87
2023/09/08 13:47:53;;;;;;;4.25;1.20;;;;;;;;;;5095231;28;20024;-87
2023/09/08 13:50:19;;;;;;;5.18;1.33;;;;;;;;;;5094642;28;20108;-86
2023/09/08 13:52:44;;;;;;;3.45;1.40;;;;;;;;;;5095252;28;20526;-86
2023/09/08 13:55:12;;;;;;;3.30;1.40;;;;;;;;;;5095017;28;20119;-87
2023/09/08 13:57:38;;;;;;;3.97;1.27;;;;;;;;;;5095177;28;20027;-85
2023/09/08 14:00:04;;;;;;;3.55;1.30;;;;;;;;;;5095417;28;20091;-86
2023/09/08 14:02:36;;;;;;;4.72;1.42;;;;;;;;;;5097180;28;20012;-86
2023/09/08 14:05:01;;;;;;;3.97;1.27;;;;;;;;;;5095946;28;20119;-88
2023/09/08 14:07:27;;;;;;;5.45;1.60;;;;;;;;;;5099482;28;20465;-87
2023/09/08 14:09:52;;;;;;;6.75;1.42;;;;;;;;;;5097296;28;20039;-86
2023/09/08 14:12:18;;;;;;;5.55;1.80;;;;;;;;;;5099866;28;20065;-87
2023/09/08 14:14:43;;;;;;;5.05;1.35;;;;;;;;;;5071376;28;20027;-86
2023/09/08 14:17:08;;;;;;;5.05;1.52;;;;;;;;;;5091389;28;20055;-85
2023/09/08 14:19:34;;;;;;;6.13;1.70;;;;;;;;;;5099313;28;20039;-86
2023/09/08 14:22:00;;;;;;;5.22;1.90;;;;;;;;;;5099928;28;20106;-86
2023/09/08 14:24:28;;;;;;;5.28;2.17;;;;;;;;;;5081779;28;20036;-87
2023/09/08 14:26:54;;;;;;;5.15;1.67;;;;;;;;;;5079314;28;20048;-87
2023/09/08 14:29:21;;;;;;;4.28;1.90;;;;;;;;;;5097542;28;20133;-85
2023/09/08 14:31:46;;;;;;;4.45;1.70;;;;;;;;;;5077910;28;20025;-86
2023/09/08 14:34:12;;;;;;;4.07;1.35;;;;;;;;;;5080932;28;20046;-86
2023/09/08 14:36:38;;;;;;;3.97;1.50;;;;;;;;;;5096715;28;20032;-87
2023/09/08 14:39:03;;;;;;;5.43;1.35;;;;;;;;;;5082280;28;20064;-86
2023/09/08 14:41:29;;;;;;;4.32;1.33;;;;;;;;;;5096082;28;20069;-86
2023/09/08 14:43:54;;;;;;;4.80;1.52;;;;;;;;;;5098122;28;20074;-85